PWSweather.com
Personal Weather Stations
Station Observations

ChardChardGB

Lat: 50.877408, Lon: -2.94964741

Elevation: 341

Station Type: WS3083

http://www.merriott-astro.co.uk/weather/index.htm

Latest ConditionsUpdated 5:50:18 AM GMT Monday, Sep 23, 2019
Currently Today's Max Today's Min Today's Average
Temperature 48.4°F9.1°C 57.4°F14.1°C 48.4°F9.1°C 52.7°F11.5°C
Dew Point 48.1°F8.9°C 53.2°F11.8°C 48.1°F8.9°C 50.6°F10.3°C
Winds 0.3 mph S0.5 kmh S 5.6 mph -9.0 kmh - - 2.3 mph 3.7 kmh
Wind Gusts 1.6 mph2.6 kmh 8.3 mph13.4 kmh - -
Humidity 99% 100% 86% 93%
Pressure 29.20 in988.8 mb 29.20 in988.8 mb 29.14 in986.8 mb -
Hour Temp Dew Point Humidity Winds Wind Gusts Pressure Precip Precip Rate Daily Precip Total
05:50 AM 48.4°F9.1°C 48.1°F8.9°C 99% 0.3 mph S0.5 kmh S 1.6 mph2.6 kmh 29.20 in988.8 mb 0.00 in0.0 mm 0.00 in0.0 mm 0.00 in0.0 mm
05:40 AM 48.4°F9.1°C 48.1°F8.9°C 99% 0.3 mph S0.5 kmh S 0.7 mph1.1 kmh 29.19 in988.5 mb 0.00 in0.0 mm 0.00 in0.0 mm 0.00 in0.0 mm
05:30 AM 48.6°F9.2°C 48.3°F9.1°C 99% 0.1 mph S0.2 kmh S 0.7 mph1.1 kmh 29.19 in988.5 mb 0.00 in0.0 mm 0.00 in0.0 mm 0.00 in0.0 mm
05:20 AM 49.1°F9.5°C 48.8°F9.3°C 99% 0.9 mph S1.4 kmh S 1.6 mph2.6 kmh 29.19 in988.5 mb 0.00 in0.0 mm 0.00 in0.0 mm 0.00 in0.0 mm
05:10 AM 48.9°F9.4°C 48.7°F9.3°C 99% 0.4 mph S0.6 kmh S 1.6 mph2.6 kmh 29.18 in988.1 mb 0.00 in0.0 mm 0.00 in0.0 mm 0.00 in0.0 mm
05:00 AM 49.1°F9.5°C 48.8°F9.3°C 99% 0.2 mph S0.3 kmh S 0.7 mph1.1 kmh 29.19 in988.5 mb 0.00 in0.0 mm 0.00 in0.0 mm 0.00 in0.0 mm
04:50 AM 49.5°F9.7°C 49.2°F9.6°C 99% 0.4 mph S0.6 kmh S 1.6 mph2.6 kmh 29.19 in988.5 mb 0.00 in0.0 mm 0.00 in0.0 mm 0.00 in0.0 mm
04:40 AM 49.6°F9.8°C 49.4°F9.7°C 99% 0.3 mph S0.5 kmh S 1.6 mph2.6 kmh 29.20 in988.8 mb 0.00 in0.0 mm 0.00 in0.0 mm 0.00 in0.0 mm
04:30 AM 50.2°F10.1°C 49.9°F9.9°C 99% 1.4 mph S2.3 kmh S 1.6 mph2.6 kmh 29.19 in988.5 mb 0.00 in0.0 mm 0.00 in0.0 mm 0.00 in0.0 mm
04:20 AM 50.2°F10.1°C 49.9°F9.9°C 99% 0.9 mph S1.4 kmh S 1.6 mph2.6 kmh 29.20 in988.8 mb 0.00 in0.0 mm 0.00 in0.0 mm 0.00 in0.0 mm
04:10 AM 50.2°F10.1°C 50.2°F10.1°C 100% 1.4 mph ESE2.3 kmh ESE 3.1 mph5.0 kmh 29.19 in988.5 mb 0.00 in0.0 mm 0.00 in0.0 mm 0.00 in0.0 mm
04:00 AM 50.2°F10.1°C 49.4°F9.7°C 97% 1.3 mph S2.1 kmh S 2.2 mph3.5 kmh 29.18 in988.1 mb 0.00 in0.0 mm 0.00 in0.0 mm 0.00 in0.0 mm
03:50 AM 50.4°F10.2°C 49.3°F9.6°C 96% 1.4 mph S2.3 kmh S 2.2 mph3.5 kmh 29.19 in988.5 mb 0.00 in0.0 mm 0.00 in0.0 mm 0.00 in0.0 mm
03:40 AM 50.5°F10.3°C 49.2°F9.6°C 95% 1.0 mph S1.6 kmh S 2.2 mph3.5 kmh 29.19 in988.5 mb 0.00 in0.0 mm 0.00 in0.0 mm 0.00 in0.0 mm
03:30 AM 51.1°F10.6°C 49.7°F9.8°C 95% 0.8 mph S1.3 kmh S 2.2 mph3.5 kmh 29.18 in988.1 mb 0.00 in0.0 mm 0.00 in0.0 mm 0.00 in0.0 mm
03:20 AM 51.8°F11.0°C 50.1°F10.1°C 94% 2.1 mph S3.4 kmh S 3.1 mph5.0 kmh 29.18 in988.1 mb 0.00 in0.0 mm 0.00 in0.0 mm 0.00 in0.0 mm
03:10 AM 52.2°F11.2°C 50.2°F10.1°C 93% 1.4 mph SSE2.3 kmh SSE 2.2 mph3.5 kmh 29.18 in988.1 mb 0.00 in0.0 mm 0.00 in0.0 mm 0.00 in0.0 mm
03:00 AM 52.7°F11.5°C 50.7°F10.4°C 93% 1.4 mph ESE2.3 kmh ESE 3.1 mph5.0 kmh 29.18 in988.1 mb 0.00 in0.0 mm 0.00 in0.0 mm 0.00 in0.0 mm
02:50 AM 53.1°F11.7°C 50.8°F10.4°C 92% 0.8 mph SSE1.3 kmh SSE 1.6 mph2.6 kmh 29.18 in988.1 mb 0.00 in0.0 mm 0.00 in0.0 mm 0.00 in0.0 mm
02:40 AM 53.6°F12.0°C 51.3°F10.7°C 92% 1.5 mph SSE2.4 kmh SSE 2.2 mph3.5 kmh 29.18 in988.1 mb 0.00 in0.0 mm 0.00 in0.0 mm 0.00 in0.0 mm
02:30 AM 54.0°F12.2°C 51.4°F10.8°C 91% 2.7 mph S4.3 kmh S 4.5 mph7.2 kmh 29.17 in987.8 mb 0.00 in0.0 mm 0.00 in0.0 mm 0.00 in0.0 mm
02:20 AM 54.1°F12.3°C 51.6°F10.9°C 91% 3.6 mph SSW5.8 kmh SSW 6.0 mph9.7 kmh 29.18 in988.1 mb 0.00 in0.0 mm 0.00 in0.0 mm 0.00 in0.0 mm
02:10 AM 54.5°F12.5°C 50.7°F10.4°C 87% 3.6 mph SSW5.8 kmh SSW 5.4 mph8.7 kmh 29.18 in988.1 mb 0.00 in0.0 mm 0.00 in0.0 mm 0.00 in0.0 mm
02:00 AM 54.7°F12.6°C 51.2°F10.7°C 88% 3.6 mph S5.8 kmh S 5.4 mph8.7 kmh 29.17 in987.8 mb 0.00 in0.0 mm 0.00 in0.0 mm 0.00 in0.0 mm
01:50 AM 54.7°F12.6°C 50.9°F10.5°C 87% 3.7 mph S6.0 kmh S 6.9 mph11.1 kmh 29.17 in987.8 mb 0.00 in0.0 mm 0.00 in0.0 mm 0.00 in0.0 mm
01:40 AM 54.9°F12.7°C 51.1°F10.6°C 87% 4.4 mph SSW7.1 kmh SSW 5.4 mph8.7 kmh 29.17 in987.8 mb 0.00 in0.0 mm 0.00 in0.0 mm 0.00 in0.0 mm
01:30 AM 55.0°F12.8°C 51.6°F10.9°C 88% 4.2 mph S6.8 kmh S 6.0 mph9.7 kmh 29.16 in987.5 mb 0.00 in0.0 mm 0.00 in0.0 mm 0.00 in0.0 mm
01:20 AM 55.2°F12.9°C 51.7°F10.9°C 88% 4.3 mph S6.9 kmh S 6.0 mph9.7 kmh 29.16 in987.5 mb 0.00 in0.0 mm 0.00 in0.0 mm 0.00 in0.0 mm
01:10 AM 55.6°F13.1°C 52.1°F11.2°C 88% 3.7 mph S6.0 kmh S 5.4 mph8.7 kmh 29.15 in987.1 mb 0.00 in0.0 mm 0.00 in0.0 mm 0.00 in0.0 mm
01:00 AM 55.8°F13.2°C 52.0°F11.1°C 87% 3.5 mph S5.6 kmh S 6.0 mph9.7 kmh 29.16 in987.5 mb 0.00 in0.0 mm 0.00 in0.0 mm 0.00 in0.0 mm
12:50 AM 56.1°F13.4°C 52.3°F11.3°C 87% 4.0 mph SW6.4 kmh SW 6.9 mph11.1 kmh 29.15 in987.1 mb 0.00 in0.0 mm 0.00 in0.0 mm 0.00 in0.0 mm
12:40 AM 56.3°F13.5°C 52.2°F11.2°C 86% 3.7 mph SSW6.0 kmh SSW 5.4 mph8.7 kmh 29.15 in987.1 mb 0.00 in0.0 mm 0.00 in0.0 mm 0.00 in0.0 mm
12:30 AM 56.8°F13.8°C 52.7°F11.5°C 86% 4.9 mph SW7.9 kmh SW 7.6 mph12.2 kmh 29.15 in987.1 mb 0.00 in0.0 mm 0.00 in0.0 mm 0.00 in0.0 mm
12:20 AM 57.0°F13.9°C 52.9°F11.6°C 86% 5.2 mph SSW8.4 kmh SSW 6.9 mph11.1 kmh 29.15 in987.1 mb 0.00 in0.0 mm 0.00 in0.0 mm 0.00 in0.0 mm
12:10 AM 57.2°F14.0°C 53.1°F11.7°C 86% 5.0 mph SSW8.0 kmh SSW 6.9 mph11.1 kmh 29.14 in986.8 mb 0.00 in0.0 mm 0.00 in0.0 mm 0.00 in0.0 mm
12:00 AM 57.4°F14.1°C 53.2°F11.8°C 86% 5.6 mph SW9.0 kmh SW 8.3 mph13.4 kmh 29.14 in986.8 mb 0.00 in0.0 mm 0.00 in0.0 mm 0.00 in0.0 mm